createdAt,value
2019-03-02T00:01:42.094Z,81.50
2019-03-02T00:04:10.981Z,88.30
2019-03-02T00:06:37.941Z,88.30
2019-03-02T00:09:04.899Z,86.30
2019-03-02T00:11:31.856Z,82.70
2019-03-02T00:13:58.613Z,83.90
2019-03-02T00:16:25.284Z,84.10
2019-03-02T00:18:52.465Z,85.80
2019-03-02T00:21:19.915Z,86.10
2019-03-02T00:23:46.734Z,88.40
2019-03-02T00:26:13.666Z,87.70
2019-03-02T00:28:40.564Z,85.60
2019-03-02T00:31:07.692Z,86.60
2019-03-02T00:33:34.640Z,85.30
2019-03-02T00:36:01.974Z,88.80
2019-03-02T00:38:28.622Z,87.10
2019-03-02T00:40:55.631Z,88.30
2019-03-02T00:43:23.643Z,87.20
2019-03-02T00:45:50.874Z,84.40
2019-03-02T00:48:18.017Z,90.10
2019-03-02T00:50:46.183Z,88.40
2019-03-02T00:53:12.964Z,86.00
2019-03-02T00:55:39.996Z,90.00
2019-03-02T00:58:06.868Z,89.90
2019-03-02T01:00:33.821Z,87.00
2019-03-02T01:03:00.654Z,89.50
2019-03-02T01:05:27.286Z,92.70
2019-03-02T01:07:55.979Z,92.50
2019-03-02T01:10:22.646Z,91.70
2019-03-02T01:12:50.394Z,90.60
2019-03-02T01:15:17.667Z,89.80
2019-03-02T01:17:45.489Z,87.80
2019-03-02T01:20:12.400Z,88.90
2019-03-02T01:25:23.648Z,89.50
2019-03-02T01:27:50.665Z,89.20
2019-03-02T01:30:17.544Z,89.50
2019-03-02T01:32:44.192Z,90.00
2019-03-02T01:35:12.249Z,90.30
2019-03-02T01:37:39.946Z,90.40
2019-03-02T01:40:07.779Z,91.00
2019-03-02T01:42:34.608Z,91.30
2019-03-02T01:45:01.263Z,91.20
2019-03-02T01:47:28.077Z,90.50
2019-03-02T01:49:54.837Z,88.80
2019-03-02T01:52:21.633Z,86.60
2019-03-02T01:54:48.650Z,86.60
2019-03-02T01:57:17.192Z,87.50
2019-03-02T01:59:43.917Z,89.20
2019-03-02T02:02:10.651Z,91.50
2019-03-02T02:04:37.265Z,90.80
2019-03-02T02:07:04.590Z,90.60
2019-03-02T02:09:31.415Z,89.90
2019-03-02T02:11:58.089Z,90.40
2019-03-02T02:14:25.574Z,90.50
2019-03-02T02:16:52.758Z,91.90
2019-03-02T02:19:19.664Z,93.00
2019-03-02T02:21:46.304Z,91.90
2019-03-02T02:24:14.305Z,93.20
2019-03-02T02:26:43.897Z,92.50
2019-03-02T02:29:09.557Z,91.20
2019-03-02T02:31:44.580Z,90.90
2019-03-02T02:34:05.564Z,90.60
2019-03-02T02:36:32.248Z,91.20
2019-03-02T02:38:59.467Z,90.00
2019-03-02T02:41:26.540Z,90.00
2019-03-02T02:43:54.384Z,92.20
2019-03-02T02:46:22.090Z,90.60
2019-03-02T02:48:48.737Z,89.30
2019-03-02T02:51:15.591Z,87.60
2019-03-02T02:53:45.015Z,89.60
2019-03-02T02:56:14.515Z,89.60
2019-03-02T02:58:39.281Z,89.20
2019-03-02T03:01:06.009Z,89.70
2019-03-02T03:03:33.066Z,89.90
2019-03-02T03:06:09.199Z,88.90
2019-03-02T03:08:36.053Z,87.60
2019-03-02T03:11:06.600Z,86.90
2019-03-02T03:13:36.016Z,89.20
2019-03-02T03:15:59.898Z,90.40
2019-03-02T03:18:26.564Z,92.30
2019-03-02T03:20:53.470Z,91.50
2019-03-02T03:23:24.954Z,91.90
2019-03-02T03:25:55.896Z,92.70
2019-03-02T03:28:17.400Z,93.20
2019-03-02T03:30:46.434Z,93.00
2019-03-02T03:33:21.897Z,93.70
2019-03-02T03:35:51.776Z,94.10
2019-03-02T03:40:50.115Z,95.30
2019-03-02T03:43:16.901Z,95.30
2019-03-02T03:48:28.089Z,93.00
2019-03-02T03:50:54.815Z,92.50
2019-03-02T03:53:26.257Z,92.60
2019-03-02T03:55:50.349Z,93.60
2019-03-02T03:58:17.010Z,92.60
2019-03-02T04:00:43.984Z,92.50
2019-03-02T04:03:13.794Z,93.50
2019-03-02T04:05:42.039Z,92.80
2019-03-02T04:08:08.034Z,92.60
2019-03-02T04:10:35.931Z,93.50
2019-03-02T04:13:04.942Z,93.10
2019-03-02T04:15:40.876Z,94.60
2019-03-02T04:18:01.795Z,94.10
2019-03-02T04:20:31.014Z,94.40
2019-03-02T04:22:57.633Z,93.90
2019-03-02T04:25:24.523Z,94.30
2019-03-02T04:27:54.581Z,96.80
2019-03-02T04:30:20.783Z,97.00
2019-03-02T04:32:47.479Z,97.00
2019-03-02T04:35:14.385Z,95.90
2019-03-02T04:37:41.072Z,94.40
2019-03-02T04:40:07.721Z,94.40
2019-03-02T04:42:34.478Z,93.90
2019-03-02T04:45:01.589Z,95.10
2019-03-02T04:47:29.680Z,95.70
2019-03-02T04:49:56.571Z,95.80
2019-03-02T04:52:23.228Z,97.60
2019-03-02T04:54:49.966Z,96.30
2019-03-02T04:57:17.353Z,97.80
2019-03-02T04:59:44.052Z,97.00
2019-03-02T05:02:10.721Z,95.40
2019-03-02T05:04:37.439Z,94.00
2019-03-02T05:07:06.679Z,94.10
2019-03-02T05:09:36.329Z,93.40
2019-03-02T05:12:05.661Z,93.00
2019-03-02T05:14:32.274Z,93.00
2019-03-02T05:17:03.399Z,92.90
2019-03-02T05:19:29.946Z,93.10
2019-03-02T05:21:59.196Z,92.00
2019-03-02T05:24:26.966Z,92.10
2019-03-02T05:26:56.703Z,92.50
2019-03-02T05:29:22.324Z,93.80
2019-03-02T05:31:51.804Z,93.70
2019-03-02T05:34:21.842Z,95.40
2019-03-02T05:36:52.038Z,94.20
2019-03-02T05:39:22.598Z,93.70
2019-03-02T05:41:53.207Z,94.70
2019-03-02T05:44:21.291Z,93.90
2019-03-02T05:46:53.080Z,92.90
2019-03-02T05:49:20.448Z,92.40
2019-03-02T05:51:49.624Z,92.00
2019-03-02T05:54:16.553Z,91.90
2019-03-02T05:56:44.760Z,92.90
2019-03-02T05:59:26.665Z,92.60
2019-03-02T06:01:53.493Z,92.00
2019-03-02T06:04:22.099Z,94.30
2019-03-02T06:06:50.771Z,93.40
2019-03-02T06:09:18.085Z,92.60
2019-03-02T06:11:44.713Z,92.00
2019-03-02T06:14:13.789Z,93.60
2019-03-02T06:16:40.585Z,94.20
2019-03-02T06:19:07.502Z,93.50
2019-03-02T06:21:34.126Z,94.70
2019-03-02T06:24:01.599Z,94.10
2019-03-02T06:26:31.789Z,92.90
2019-03-02T06:28:58.017Z,92.40
2019-03-02T06:31:25.377Z,92.60
2019-03-02T06:33:52.172Z,93.00
2019-03-02T06:36:18.799Z,93.90
2019-03-02T06:38:45.434Z,93.60
2019-03-02T06:41:12.310Z,93.00
2019-03-02T06:43:39.660Z,93.30
2019-03-02T06:46:06.342Z,94.20
2019-03-02T06:48:32.929Z,95.10
2019-03-02T06:51:02.344Z,94.60
2019-03-02T06:53:28.240Z,94.10
2019-03-02T06:56:00.821Z,94.10
2019-03-02T06:58:29.310Z,93.30
2019-03-02T07:00:58.470Z,93.00
2019-03-02T07:03:25.435Z,92.90
2019-03-02T07:05:52.290Z,94.20
2019-03-02T07:08:19.225Z,93.40
2019-03-02T07:10:46.455Z,93.80
2019-03-02T07:13:13.793Z,94.80
2019-03-02T07:15:43.657Z,95.40
2019-03-02T07:18:09.020Z,93.90
2019-03-02T07:20:35.610Z,94.10
2019-03-02T07:23:02.645Z,92.30
2019-03-02T07:25:29.510Z,90.80
2019-03-02T07:27:56.650Z,92.00
2019-03-02T07:30:23.548Z,92.10
2019-03-02T07:32:50.752Z,91.70
2019-03-02T07:35:19.311Z,91.20
2019-03-02T07:37:46.753Z,90.80
2019-03-02T07:40:13.871Z,89.40
2019-03-02T07:42:40.808Z,88.00
2019-03-02T07:45:07.463Z,85.80
2019-03-02T07:47:34.047Z,84.40
2019-03-02T07:50:01.482Z,84.60
2019-03-02T07:52:28.665Z,83.80
2019-03-02T07:54:58.317Z,84.50
2019-03-02T07:57:24.050Z,84.80
2019-03-02T07:59:50.743Z,86.10
2019-03-02T08:02:17.353Z,85.80
2019-03-02T08:04:44.136Z,85.30
2019-03-02T08:07:11.041Z,87.20
2019-03-02T08:09:37.645Z,85.90
2019-03-02T08:12:04.465Z,86.10
2019-03-02T08:14:31.631Z,84.30
2019-03-02T08:16:58.448Z,87.80
2019-03-02T08:19:25.357Z,88.30
2019-03-02T08:21:51.950Z,87.50
2019-03-02T08:24:18.588Z,88.80
2019-03-02T08:26:46.147Z,90.30
2019-03-02T08:29:17.741Z,89.50
2019-03-02T08:34:35.313Z,86.60
2019-03-02T08:37:01.918Z,85.50
2019-03-02T08:39:28.781Z,84.50
2019-03-02T08:41:55.704Z,87.70
2019-03-02T08:44:22.767Z,85.50
2019-03-02T08:46:49.603Z,86.90
2019-03-02T08:49:16.962Z,88.40
2019-03-02T08:51:43.621Z,87.40
2019-03-02T08:54:10.547Z,88.50
2019-03-02T08:56:37.181Z,89.90
2019-03-02T08:59:03.836Z,90.30
2019-03-02T09:01:30.628Z,88.40
2019-03-02T09:03:57.312Z,86.50
2019-03-02T09:06:24.182Z,86.70
2019-03-02T09:08:50.829Z,86.80
2019-03-02T09:11:17.825Z,85.30
2019-03-02T09:13:44.720Z,84.30
2019-03-02T09:16:11.430Z,84.30
2019-03-02T09:18:45.332Z,86.80
2019-03-02T09:21:08.986Z,89.80
2019-03-02T09:23:37.106Z,91.00
2019-03-02T09:26:04.525Z,90.80
2019-03-02T09:28:32.085Z,91.00
2019-03-02T09:31:02.075Z,91.20
2019-03-02T09:33:28.773Z,91.40
2019-03-02T09:35:56.397Z,92.10
2019-03-02T09:38:23.330Z,90.30
2019-03-02T09:40:50.770Z,90.40
2019-03-02T09:43:17.573Z,90.00
2019-03-02T09:45:44.755Z,89.90
2019-03-02T09:48:12.692Z,87.30
2019-03-02T09:50:39.284Z,86.10
2019-03-02T09:53:05.957Z,87.60
2019-03-02T09:55:33.128Z,87.90
2019-03-02T09:57:59.859Z,85.40
2019-03-02T10:00:26.792Z,81.60
2019-03-02T10:02:53.705Z,82.60
2019-03-02T10:05:20.383Z,82.50
2019-03-02T10:07:47.887Z,80.70
2019-03-02T10:10:14.530Z,81.30
2019-03-02T10:12:41.478Z,81.80
2019-03-02T10:15:08.143Z,81.20
2019-03-02T10:17:38.495Z,81.30
2019-03-02T10:20:05.233Z,81.80
2019-03-02T10:22:32.277Z,80.60
2019-03-02T10:24:58.955Z,79.80
2019-03-02T10:27:25.977Z,79.40
2019-03-02T10:29:52.857Z,79.30
2019-03-02T10:32:20.009Z,79.40
2019-03-02T10:34:48.094Z,80.50
2019-03-02T10:37:14.885Z,79.70
2019-03-02T10:39:41.871Z,79.40
2019-03-02T10:42:13.432Z,80.60
2019-03-02T10:44:38.685Z,79.00
2019-03-02T10:47:05.544Z,78.70
2019-03-02T10:49:32.295Z,79.90
2019-03-02T10:52:02.831Z,79.00
2019-03-02T10:54:31.684Z,81.00
2019-03-02T10:56:59.833Z,83.40
2019-03-02T10:59:26.664Z,84.70
2019-03-02T11:01:53.576Z,83.60
2019-03-02T11:04:20.334Z,80.90
2019-03-02T11:06:49.402Z,80.40
2019-03-02T11:09:22.340Z,81.00
2019-03-02T11:11:44.869Z,82.50
2019-03-02T11:14:11.489Z,80.00
2019-03-02T11:16:38.532Z,79.00
2019-03-02T11:19:07.995Z,79.80
2019-03-02T11:21:35.524Z,79.40
2019-03-02T11:24:03.352Z,78.80
2019-03-02T11:26:30.674Z,76.60
2019-03-02T11:28:57.695Z,78.10
2019-03-02T11:31:25.641Z,78.80
2019-03-02T11:33:53.452Z,78.00
2019-03-02T11:36:20.968Z,76.80
2019-03-02T11:38:49.056Z,78.00
2019-03-02T11:41:15.840Z,78.40
2019-03-02T11:43:42.657Z,77.00
2019-03-02T11:46:09.285Z,76.70
2019-03-02T11:48:35.907Z,76.80
2019-03-02T11:51:03.555Z,78.50
2019-03-02T11:53:30.657Z,78.00
2019-03-02T11:56:09.511Z,78.10
2019-03-02T11:58:36.976Z,77.50
2019-03-02T12:01:06.549Z,76.40
2019-03-02T12:03:35.369Z,79.50
2019-03-02T12:06:05.988Z,80.50
2019-03-02T12:08:31.532Z,75.20
2019-03-02T12:10:58.417Z,77.50
2019-03-02T12:13:27.752Z,78.20
2019-03-02T12:15:54.307Z,74.00
2019-03-02T12:18:20.932Z,73.50
2019-03-02T12:20:47.894Z,75.00
2019-03-02T12:23:14.510Z,75.80
2019-03-02T12:25:42.032Z,74.20
2019-03-02T12:28:08.940Z,73.40
2019-03-02T12:30:36.158Z,75.70
2019-03-02T12:33:04.124Z,76.70
2019-03-02T12:35:34.451Z,75.50
2019-03-02T12:37:59.766Z,75.70
2019-03-02T12:40:26.585Z,74.80
2019-03-02T12:42:54.559Z,74.40
2019-03-02T12:45:21.262Z,73.80
2019-03-02T12:47:48.318Z,76.00
2019-03-02T12:50:18.914Z,73.90
2019-03-02T12:52:48.161Z,74.40
2019-03-02T12:55:16.394Z,74.70
2019-03-02T12:57:45.497Z,73.80
2019-03-02T13:00:10.598Z,74.30
2019-03-02T13:02:37.403Z,73.60
2019-03-02T13:05:06.573Z,75.50
2019-03-02T13:07:35.733Z,75.80
2019-03-02T13:10:02.625Z,76.20
2019-03-02T13:12:32.436Z,75.00
2019-03-02T13:14:59.675Z,72.80
2019-03-02T13:17:33.140Z,74.20
2019-03-02T13:20:02.745Z,72.30
2019-03-02T13:22:33.495Z,71.80
2019-03-02T13:25:03.579Z,73.80
2019-03-02T13:27:31.040Z,73.80
2019-03-02T13:29:59.869Z,74.80
2019-03-02T13:32:28.826Z,73.50
2019-03-02T13:35:00.497Z,72.60
2019-03-02T13:37:29.767Z,73.30
2019-03-02T13:39:56.943Z,70.90
2019-03-02T13:42:27.347Z,70.60
2019-03-02T13:45:00.322Z,71.40
2019-03-02T13:47:27.241Z,70.50
2019-03-02T13:49:55.341Z,72.40
2019-03-02T13:52:22.081Z,72.00
2019-03-02T13:54:50.889Z,72.90
2019-03-02T13:57:17.475Z,72.40
2019-03-02T13:59:46.199Z,73.30
2019-03-02T14:02:12.698Z,71.10
2019-03-02T14:04:39.561Z,72.40
2019-03-02T14:07:10.808Z,71.20
2019-03-02T14:09:37.974Z,70.80
2019-03-02T14:12:08.107Z,71.30
2019-03-02T14:14:41.092Z,71.40
2019-03-02T14:17:08.316Z,69.70
2019-03-02T14:19:42.018Z,70.70
2019-03-02T14:22:11.312Z,72.10
2019-03-02T14:24:38.911Z,72.40
2019-03-02T14:27:05.957Z,72.90
2019-03-02T14:29:42.960Z,71.40
2019-03-02T14:32:13.500Z,71.70
2019-03-02T14:34:40.273Z,72.10
2019-03-02T14:37:08.015Z,71.00
2019-03-02T14:39:38.065Z,70.90
2019-03-02T14:42:08.720Z,71.60
2019-03-02T14:44:39.500Z,71.70
2019-03-02T14:47:06.408Z,72.60
2019-03-02T14:49:34.068Z,72.10
2019-03-02T14:52:05.986Z,71.80
2019-03-02T14:54:34.018Z,72.00
2019-03-02T14:57:05.108Z,72.40
2019-03-02T14:59:34.703Z,72.90
2019-03-02T15:02:02.302Z,72.60
2019-03-02T15:04:31.268Z,71.60
2019-03-02T15:06:58.123Z,72.00
2019-03-02T15:09:26.277Z,72.40
2019-03-02T15:11:53.242Z,72.80
2019-03-02T15:14:20.467Z,71.60
2019-03-02T15:16:47.287Z,69.80
2019-03-02T15:19:15.995Z,71.70
2019-03-02T15:21:47.742Z,72.40
2019-03-02T15:24:14.995Z,71.60
2019-03-02T15:26:43.287Z,72.50
2019-03-02T15:29:25.085Z,72.50
2019-03-02T15:31:58.390Z,71.60
2019-03-02T15:34:24.735Z,72.20
2019-03-02T15:36:53.907Z,70.00
2019-03-02T15:39:22.810Z,69.40
2019-03-02T15:41:50.268Z,70.00
2019-03-02T15:44:22.685Z,70.10
2019-03-02T15:46:50.250Z,70.30
2019-03-02T15:49:18.262Z,70.30
2019-03-02T15:54:22.986Z,70.70
2019-03-02T15:56:49.286Z,70.60
2019-03-02T15:59:19.118Z,70.00
2019-03-02T16:01:45.521Z,69.30
2019-03-02T16:04:31.787Z,69.50
2019-03-02T16:06:54.981Z,68.70
2019-03-02T16:09:25.215Z,69.10
2019-03-02T16:11:50.332Z,68.50
2019-03-02T16:14:18.528Z,68.40
2019-03-02T16:16:45.450Z,67.40
2019-03-02T16:19:12.444Z,67.90
2019-03-02T16:21:41.619Z,67.50
2019-03-02T16:24:08.628Z,67.40
2019-03-02T16:26:37.111Z,67.70
2019-03-02T16:29:04.195Z,67.50
2019-03-02T16:31:34.247Z,67.00
2019-03-02T16:34:04.397Z,67.80
2019-03-02T16:36:29.419Z,70.20
2019-03-02T16:38:57.738Z,70.20
2019-03-02T16:41:27.226Z,70.50
2019-03-02T16:43:53.830Z,70.70
2019-03-02T16:46:22.858Z,71.30
2019-03-02T16:48:53.521Z,72.40
2019-03-02T16:51:20.584Z,72.90
2019-03-02T16:53:48.567Z,72.80
2019-03-02T16:56:17.070Z,73.00
2019-03-02T16:58:44.531Z,72.40
2019-03-02T17:01:11.158Z,73.00
2019-03-02T17:03:39.091Z,73.10
2019-03-02T17:06:11.177Z,73.50
2019-03-02T17:08:38.054Z,72.60
2019-03-02T17:11:07.042Z,73.90
2019-03-02T17:13:34.604Z,77.70
2019-03-02T17:16:03.306Z,80.90
2019-03-02T17:18:31.587Z,82.40
2019-03-02T17:20:58.318Z,83.90
2019-03-02T17:23:26.964Z,84.00
2019-03-02T17:25:53.841Z,84.40
2019-03-02T17:28:21.004Z,85.30
2019-03-02T17:30:53.088Z,85.90
2019-03-02T17:33:26.790Z,87.40
2019-03-02T17:35:50.534Z,86.20
2019-03-02T17:38:19.227Z,86.70
2019-03-02T17:40:46.110Z,86.80
2019-03-02T17:43:13.092Z,86.10
2019-03-02T17:45:40.012Z,86.80
2019-03-02T17:48:08.179Z,86.30
2019-03-02T17:50:36.083Z,87.20
2019-03-02T17:53:05.366Z,87.00
2019-03-02T17:55:32.203Z,86.80
2019-03-02T17:58:01.184Z,85.40
2019-03-02T18:00:30.753Z,85.70
2019-03-02T18:02:57.134Z,85.50
2019-03-02T18:05:24.085Z,86.60
2019-03-02T18:07:53.441Z,89.00
2019-03-02T18:10:22.764Z,87.00
2019-03-02T18:12:49.402Z,89.40
2019-03-02T18:15:16.472Z,90.00
2019-03-02T18:17:46.348Z,90.40
2019-03-02T18:20:15.993Z,90.70
2019-03-02T18:22:46.470Z,90.30
2019-03-02T18:25:17.029Z,91.50
2019-03-02T18:27:43.931Z,91.80
2019-03-02T18:30:10.515Z,92.80
2019-03-02T18:32:37.347Z,93.10
2019-03-02T18:35:07.924Z,93.20
2019-03-02T18:37:35.700Z,94.20
2019-03-02T18:40:03.968Z,94.60
2019-03-02T18:45:23.945Z,93.30
2019-03-02T18:47:54.351Z,91.80
2019-03-02T18:50:21.117Z,91.80
2019-03-02T18:52:53.699Z,92.90
2019-03-02T18:55:27.160Z,93.10
2019-03-02T18:57:55.901Z,91.20
2019-03-02T19:00:25.044Z,90.90
2019-03-02T19:02:54.828Z,91.50
2019-03-02T19:05:21.795Z,92.00
2019-03-02T19:07:51.006Z,93.00
2019-03-02T19:10:23.048Z,92.90
2019-03-02T19:12:50.669Z,91.90
2019-03-02T19:15:17.969Z,91.30
2019-03-02T19:17:49.499Z,90.70
2019-03-02T19:20:16.195Z,91.10
2019-03-02T19:22:45.194Z,91.00
2019-03-02T19:25:15.014Z,90.00
2019-03-02T19:27:41.907Z,87.90
2019-03-02T19:30:09.027Z,90.30
2019-03-02T19:32:38.915Z,92.40
2019-03-02T19:35:08.564Z,92.20
2019-03-02T19:37:40.223Z,90.40
2019-03-02T19:40:09.127Z,88.80
2019-03-02T19:42:36.561Z,91.50
2019-03-02T19:45:03.248Z,92.70
2019-03-02T19:47:32.603Z,91.20
2019-03-02T19:50:01.325Z,90.90
2019-03-02T19:52:27.950Z,90.70
2019-03-02T19:54:57.589Z,91.30
2019-03-02T19:57:24.253Z,91.40
2019-03-02T19:59:52.231Z,92.40
2019-03-02T20:02:22.433Z,92.40
2019-03-02T20:04:51.457Z,92.70
2019-03-02T20:07:21.596Z,92.10
2019-03-02T20:09:50.803Z,91.10
2019-03-02T20:12:19.161Z,90.30
2019-03-02T20:14:45.873Z,90.20
2019-03-02T20:17:14.667Z,89.70
2019-03-02T20:19:43.183Z,89.30
2019-03-02T20:22:12.218Z,90.00
2019-03-02T20:24:43.180Z,91.40
2019-03-02T20:27:10.149Z,90.90
2019-03-02T20:29:40.159Z,92.80
2019-03-02T20:32:07.571Z,95.00
2019-03-02T20:34:36.648Z,93.30
2019-03-02T20:37:06.231Z,92.60
2019-03-02T20:39:51.287Z,92.20
2019-03-02T20:42:21.210Z,93.00
2019-03-02T20:44:48.547Z,92.30
2019-03-02T20:47:18.309Z,93.00
2019-03-02T20:49:45.626Z,93.70
2019-03-02T20:52:16.554Z,93.60
2019-03-02T20:54:45.823Z,93.80
2019-03-02T20:57:14.538Z,93.20
2019-03-02T20:59:42.428Z,93.20
2019-03-02T21:02:09.335Z,93.50
2019-03-02T21:04:36.993Z,93.10
2019-03-02T21:07:04.055Z,93.10
2019-03-02T21:09:30.772Z,93.40
2019-03-02T21:11:57.577Z,94.70
2019-03-02T21:14:24.799Z,95.00
2019-03-02T21:16:51.744Z,94.20
2019-03-02T21:19:19.040Z,93.80
2019-03-02T21:21:45.821Z,94.00
2019-03-02T21:24:13.093Z,95.00
2019-03-02T21:26:41.595Z,95.10
2019-03-02T21:29:08.257Z,93.50
2019-03-02T21:31:35.057Z,92.90
2019-03-02T21:34:01.986Z,92.90
2019-03-02T21:36:28.595Z,92.80
2019-03-02T21:38:55.447Z,93.30
2019-03-02T21:41:22.524Z,92.90
2019-03-02T21:43:49.136Z,92.40
2019-03-02T21:46:16.112Z,93.40
2019-03-02T21:48:43.422Z,92.60
2019-03-02T21:51:11.600Z,91.80
2019-03-02T21:53:38.387Z,91.60
2019-03-02T21:56:05.272Z,91.30
2019-03-02T21:58:31.865Z,90.80
2019-03-02T22:00:58.597Z,89.80
2019-03-02T22:03:25.509Z,90.20
2019-03-02T22:05:52.374Z,90.20
2019-03-02T22:08:20.129Z,90.80
2019-03-02T22:10:46.788Z,90.80
2019-03-02T22:13:13.478Z,90.70
2019-03-02T22:15:41.515Z,90.50
2019-03-02T22:18:08.190Z,90.90
2019-03-02T22:20:34.900Z,91.90
2019-03-02T22:23:01.515Z,92.40
2019-03-02T22:25:28.260Z,93.20
2019-03-02T22:27:54.996Z,94.30
2019-03-02T22:30:22.227Z,92.90
2019-03-02T22:32:49.083Z,92.50
2019-03-02T22:35:15.689Z,92.10
2019-03-02T22:37:42.599Z,91.50
2019-03-02T22:40:09.314Z,91.70
2019-03-02T22:42:36.467Z,92.10
2019-03-02T22:45:03.690Z,92.80
2019-03-02T22:47:30.662Z,94.40
2019-03-02T22:49:57.362Z,94.90
2019-03-02T22:52:24.003Z,93.40
2019-03-02T22:54:50.698Z,93.50
2019-03-02T22:57:17.617Z,93.90
2019-03-02T22:59:44.493Z,93.70
2019-03-02T23:02:12.378Z,94.70
2019-03-02T23:04:39.165Z,94.50
2019-03-02T23:07:05.884Z,93.70
2019-03-02T23:09:32.593Z,93.20
2019-03-02T23:11:59.232Z,92.20
2019-03-02T23:14:26.167Z,92.30
2019-03-02T23:16:55.127Z,92.90
2019-03-02T23:19:21.513Z,93.70
2019-03-02T23:21:48.803Z,94.00
2019-03-02T23:24:15.527Z,94.50
2019-03-02T23:26:43.950Z,94.00
2019-03-02T23:29:10.739Z,94.80
2019-03-02T23:31:37.636Z,94.30
2019-03-02T23:34:04.400Z,93.10
2019-03-02T23:36:31.019Z,93.50
2019-03-02T23:38:58.063Z,93.40
2019-03-02T23:41:25.078Z,93.90
2019-03-02T23:43:51.944Z,94.90
2019-03-02T23:46:18.830Z,94.60
2019-03-02T23:48:46.169Z,94.80
2019-03-02T23:51:14.312Z,94.80
2019-03-02T23:53:41.022Z,94.30
2019-03-02T23:56:07.973Z,94.10
2019-03-02T23:58:34.665Z,94.60
